Mesopotamia, Ohio
Current Conditions -  °F | °C
As of 1:17 PM on Thursday 29 Jan 2015 (Local Time) from KYNG Reporting Station
Light Snow Light Snow  
Wind Chill: 24°   Ceiling: 400
Heat Index: 32°   Visibility: 4mi
Dew Point: 30°   Wind: 10mph
Humidity: 92%   Direction: 170°S
Pressure: 29.79"   Gusts: NA
Location:  41.46°N, 80.96°W
Report Text: KYNG 291817Z 17009KT 4SM -SN BR BKN004 OVC011 00/M01 A2979 RMK AO2 P0002 I1000 T00001011
Loading
Personal Weather Stations






























Interactive Weather Map New forecast layout! Learn more

10-Day Weather Forecast

Advertisements
Track Severe Weather on mobile